sensor_id;sensor_type;location;lat;lon;timestamp;P1;durP1;ratioP1;P2;durP2;ratioP2
12625;SDS011;6378;42.684;23.372;2022-12-29T00:01:33;26.20;;;17.37;;
12625;SDS011;6378;42.684;23.372;2022-12-29T00:03:59;23.63;;;17.17;;
12625;SDS011;6378;42.684;23.372;2022-12-29T00:06:25;24.73;;;16.20;;
12625;SDS011;6378;42.684;23.372;2022-12-29T00:08:50;26.20;;;18.23;;
12625;SDS011;6378;42.684;23.372;2022-12-29T00:11:17;27.97;;;17.57;;
12625;SDS011;6378;42.684;23.372;2022-12-29T00:13:43;25.83;;;16.87;;
12625;SDS011;6378;42.684;23.372;2022-12-29T00:16:27;29.63;;;19.30;;
12625;SDS011;6378;42.684;23.372;2022-12-29T00:18:54;29.53;;;19.07;;
12625;SDS011;6378;42.684;23.372;2022-12-29T00:21:21;35.70;;;20.37;;
12625;SDS011;6378;42.684;23.372;2022-12-29T00:24:09;30.73;;;19.23;;
12625;SDS011;6378;42.684;23.372;2022-12-29T00:27:26;33.73;;;19.50;;
12625;SDS011;6378;42.684;23.372;2022-12-29T00:30:07;29.67;;;19.73;;
12625;SDS011;6378;42.684;23.372;2022-12-29T00:32:53;31.13;;;18.60;;
12625;SDS011;6378;42.684;23.372;2022-12-29T00:35:38;29.80;;;19.47;;
12625;SDS011;6378;42.684;23.372;2022-12-29T00:38:08;30.10;;;19.73;;
12625;SDS011;6378;42.684;23.372;2022-12-29T00:40:54;26.27;;;18.13;;
12625;SDS011;6378;42.684;23.372;2022-12-29T00:43:38;27.27;;;19.20;;
12625;SDS011;6378;42.684;23.372;2022-12-29T00:46:22;27.43;;;17.90;;
12625;SDS011;6378;42.684;23.372;2022-12-29T00:48:47;28.70;;;19.67;;
12625;SDS011;6378;42.684;23.372;2022-12-29T00:51:31;30.00;;;19.77;;
12625;SDS011;6378;42.684;23.372;2022-12-29T00:53:56;32.93;;;19.47;;
12625;SDS011;6378;42.684;23.372;2022-12-29T00:56:22;28.67;;;20.50;;
12625;SDS011;6378;42.684;23.372;2022-12-29T00:58:47;29.00;;;19.43;;
12625;SDS011;6378;42.684;23.372;2022-12-29T01:01:12;29.50;;;19.30;;
12625;SDS011;6378;42.684;23.372;2022-12-29T01:03:38;32.10;;;19.37;;
12625;SDS011;6378;42.684;23.372;2022-12-29T01:06:05;30.20;;;20.20;;
12625;SDS011;6378;42.684;23.372;2022-12-29T01:08:32;29.30;;;19.00;;
12625;SDS011;6378;42.684;23.372;2022-12-29T01:10:58;31.73;;;19.97;;
12625;SDS011;6378;42.684;23.372;2022-12-29T01:13:25;30.87;;;19.17;;
12625;SDS011;6378;42.684;23.372;2022-12-29T01:15:51;30.40;;;19.20;;
12625;SDS011;6378;42.684;23.372;2022-12-29T01:18:17;26.90;;;19.27;;
12625;SDS011;6378;42.684;23.372;2022-12-29T01:20:43;31.43;;;19.07;;
12625;SDS011;6378;42.684;23.372;2022-12-29T01:23:08;26.97;;;19.20;;
12625;SDS011;6378;42.684;23.372;2022-12-29T01:25:34;31.07;;;19.93;;
12625;SDS011;6378;42.684;23.372;2022-12-29T01:27:59;27.33;;;19.47;;
12625;SDS011;6378;42.684;23.372;2022-12-29T01:30:24;27.83;;;18.27;;
12625;SDS011;6378;42.684;23.372;2022-12-29T01:32:50;25.87;;;17.17;;
12625;SDS011;6378;42.684;23.372;2022-12-29T01:35:15;30.07;;;19.37;;
12625;SDS011;6378;42.684;23.372;2022-12-29T01:37:40;26.20;;;18.10;;
12625;SDS011;6378;42.684;23.372;2022-12-29T01:40:06;28.90;;;19.00;;
12625;SDS011;6378;42.684;23.372;2022-12-29T01:42:32;27.33;;;17.93;;
12625;SDS011;6378;42.684;23.372;2022-12-29T01:44:58;28.80;;;18.53;;
12625;SDS011;6378;42.684;23.372;2022-12-29T01:47:34;27.57;;;19.73;;
12625;SDS011;6378;42.684;23.372;2022-12-29T01:50:03;29.53;;;18.57;;
12625;SDS011;6378;42.684;23.372;2022-12-29T01:52:32;28.83;;;18.63;;
12625;SDS011;6378;42.684;23.372;2022-12-29T01:55:00;26.33;;;17.17;;
12625;SDS011;6378;42.684;23.372;2022-12-29T01:57:29;25.63;;;17.63;;
12625;SDS011;6378;42.684;23.372;2022-12-29T02:00:01;27.47;;;17.53;;
12625;SDS011;6378;42.684;23.372;2022-12-29T02:02:38;25.67;;;16.97;;
12625;SDS011;6378;42.684;23.372;2022-12-29T02:05:07;26.27;;;17.60;;
12625;SDS011;6378;42.684;23.372;2022-12-29T02:07:37;25.40;;;16.60;;
12625;SDS011;6378;42.684;23.372;2022-12-29T02:10:03;27.07;;;17.83;;
12625;SDS011;6378;42.684;23.372;2022-12-29T02:12:29;24.43;;;16.87;;
12625;SDS011;6378;42.684;23.372;2022-12-29T02:14:55;24.27;;;17.20;;
12625;SDS011;6378;42.684;23.372;2022-12-29T02:31:41;23.60;;;16.57;;
12625;SDS011;6378;42.684;23.372;2022-12-29T02:39:47;22.50;;;16.60;;
12625;SDS011;6378;42.684;23.372;2022-12-29T02:50:20;25.07;;;16.40;;
12625;SDS011;6378;42.684;23.372;2022-12-29T02:52:54;29.47;;;17.30;;
12625;SDS011;6378;42.684;23.372;2022-12-29T02:55:24;25.57;;;16.73;;
12625;SDS011;6378;42.684;23.372;2022-12-29T02:58:02;22.97;;;16.30;;
12625;SDS011;6378;42.684;23.372;2022-12-29T03:00:47;25.30;;;16.53;;
12625;SDS011;6378;42.684;23.372;2022-12-29T03:03:28;29.47;;;17.90;;
12625;SDS011;6378;42.684;23.372;2022-12-29T03:05:58;27.97;;;17.53;;
12625;SDS011;6378;42.684;23.372;2022-12-29T03:11:32;29.43;;;17.83;;
12625;SDS011;6378;42.684;23.372;2022-12-29T03:17:35;25.77;;;16.33;;
12625;SDS011;6378;42.684;23.372;2022-12-29T03:20:06;22.30;;;15.57;;
12625;SDS011;6378;42.684;23.372;2022-12-29T03:22:34;24.40;;;16.40;;
12625;SDS011;6378;42.684;23.372;2022-12-29T03:25:06;26.43;;;17.67;;
12625;SDS011;6378;42.684;23.372;2022-12-29T03:27:39;26.97;;;16.87;;
12625;SDS011;6378;42.684;23.372;2022-12-29T03:30:09;26.90;;;17.67;;
12625;SDS011;6378;42.684;23.372;2022-12-29T03:35:13;29.00;;;18.23;;
12625;SDS011;6378;42.684;23.372;2022-12-29T03:37:42;26.87;;;18.07;;
12625;SDS011;6378;42.684;23.372;2022-12-29T03:40:25;26.13;;;17.43;;
12625;SDS011;6378;42.684;23.372;2022-12-29T03:42:53;25.40;;;17.40;;
12625;SDS011;6378;42.684;23.372;2022-12-29T03:45:20;30.00;;;18.00;;
12625;SDS011;6378;42.684;23.372;2022-12-29T03:47:45;28.77;;;18.03;;
12625;SDS011;6378;42.684;23.372;2022-12-29T03:50:11;29.67;;;18.63;;
12625;SDS011;6378;42.684;23.372;2022-12-29T03:52:37;30.20;;;19.17;;
12625;SDS011;6378;42.684;23.372;2022-12-29T03:55:03;31.97;;;19.73;;
12625;SDS011;6378;42.684;23.372;2022-12-29T03:57:29;29.33;;;18.37;;
12625;SDS011;6378;42.684;23.372;2022-12-29T03:59:54;31.37;;;19.77;;
12625;SDS011;6378;42.684;23.372;2022-12-29T04:02:19;31.50;;;19.70;;
12625;SDS011;6378;42.684;23.372;2022-12-29T04:04:45;32.77;;;20.40;;
12625;SDS011;6378;42.684;23.372;2022-12-29T04:07:10;34.90;;;20.40;;
12625;SDS011;6378;42.684;23.372;2022-12-29T04:09:36;34.57;;;20.47;;
12625;SDS011;6378;42.684;23.372;2022-12-29T04:12:01;29.70;;;19.83;;
12625;SDS011;6378;42.684;23.372;2022-12-29T04:14:27;32.93;;;20.70;;
12625;SDS011;6378;42.684;23.372;2022-12-29T04:16:52;34.07;;;21.93;;
12625;SDS011;6378;42.684;23.372;2022-12-29T04:19:18;34.17;;;21.90;;
12625;SDS011;6378;42.684;23.372;2022-12-29T04:21:43;34.97;;;21.33;;
12625;SDS011;6378;42.684;23.372;2022-12-29T04:24:08;35.97;;;21.57;;
12625;SDS011;6378;42.684;23.372;2022-12-29T04:26:34;30.53;;;18.93;;
12625;SDS011;6378;42.684;23.372;2022-12-29T04:28:59;30.17;;;19.53;;
12625;SDS011;6378;42.684;23.372;2022-12-29T04:31:24;35.13;;;21.03;;
12625;SDS011;6378;42.684;23.372;2022-12-29T04:33:50;29.57;;;19.37;;
12625;SDS011;6378;42.684;23.372;2022-12-29T04:36:15;29.60;;;19.33;;
12625;SDS011;6378;42.684;23.372;2022-12-29T04:38:41;23.47;;;16.30;;
12625;SDS011;6378;42.684;23.372;2022-12-29T04:41:07;28.50;;;19.13;;
12625;SDS011;6378;42.684;23.372;2022-12-29T04:43:32;26.23;;;17.53;;
12625;SDS011;6378;42.684;23.372;2022-12-29T04:45:57;28.37;;;18.23;;
12625;SDS011;6378;42.684;23.372;2022-12-29T04:48:23;29.00;;;18.20;;
12625;SDS011;6378;42.684;23.372;2022-12-29T04:50:49;24.37;;;16.23;;
12625;SDS011;6378;42.684;23.372;2022-12-29T04:53:15;28.40;;;18.17;;
12625;SDS011;6378;42.684;23.372;2022-12-29T04:55:41;24.77;;;17.27;;
12625;SDS011;6378;42.684;23.372;2022-12-29T04:58:07;32.03;;;19.37;;
12625;SDS011;6378;42.684;23.372;2022-12-29T05:00:32;27.50;;;17.07;;
12625;SDS011;6378;42.684;23.372;2022-12-29T05:02:58;25.47;;;17.13;;
12625;SDS011;6378;42.684;23.372;2022-12-29T05:05:23;24.47;;;16.47;;
12625;SDS011;6378;42.684;23.372;2022-12-29T05:07:49;25.83;;;17.30;;
12625;SDS011;6378;42.684;23.372;2022-12-29T05:10:14;24.40;;;15.83;;
12625;SDS011;6378;42.684;23.372;2022-12-29T05:12:39;20.57;;;15.37;;
12625;SDS011;6378;42.684;23.372;2022-12-29T05:15:05;26.77;;;16.97;;
12625;SDS011;6378;42.684;23.372;2022-12-29T05:17:32;25.03;;;16.87;;
12625;SDS011;6378;42.684;23.372;2022-12-29T05:19:58;24.10;;;16.60;;
12625;SDS011;6378;42.684;23.372;2022-12-29T05:22:24;26.10;;;16.60;;
12625;SDS011;6378;42.684;23.372;2022-12-29T05:24:50;23.93;;;16.87;;
12625;SDS011;6378;42.684;23.372;2022-12-29T05:27:15;22.93;;;16.50;;
12625;SDS011;6378;42.684;23.372;2022-12-29T05:29:41;26.80;;;16.67;;
12625;SDS011;6378;42.684;23.372;2022-12-29T05:32:06;30.03;;;16.90;;
12625;SDS011;6378;42.684;23.372;2022-12-29T05:34:32;24.73;;;17.10;;
12625;SDS011;6378;42.684;23.372;2022-12-29T05:36:57;24.80;;;17.50;;
12625;SDS011;6378;42.684;23.372;2022-12-29T05:39:22;24.60;;;17.50;;
12625;SDS011;6378;42.684;23.372;2022-12-29T05:41:48;24.50;;;17.97;;
12625;SDS011;6378;42.684;23.372;2022-12-29T05:44:14;25.87;;;17.70;;
12625;SDS011;6378;42.684;23.372;2022-12-29T05:46:39;25.43;;;16.57;;
12625;SDS011;6378;42.684;23.372;2022-12-29T05:49:05;25.33;;;16.83;;
12625;SDS011;6378;42.684;23.372;2022-12-29T05:51:31;26.13;;;17.97;;
12625;SDS011;6378;42.684;23.372;2022-12-29T05:53:56;26.63;;;16.37;;
12625;SDS011;6378;42.684;23.372;2022-12-29T05:56:22;31.87;;;18.77;;
12625;SDS011;6378;42.684;23.372;2022-12-29T05:58:48;31.07;;;18.63;;
12625;SDS011;6378;42.684;23.372;2022-12-29T06:01:13;28.57;;;18.93;;
12625;SDS011;6378;42.684;23.372;2022-12-29T06:03:41;29.70;;;18.37;;
12625;SDS011;6378;42.684;23.372;2022-12-29T06:06:07;27.03;;;18.50;;
12625;SDS011;6378;42.684;23.372;2022-12-29T06:08:32;33.67;;;20.53;;
12625;SDS011;6378;42.684;23.372;2022-12-29T06:10:58;29.17;;;18.60;;
12625;SDS011;6378;42.684;23.372;2022-12-29T06:13:23;29.50;;;19.30;;
12625;SDS011;6378;42.684;23.372;2022-12-29T06:15:49;31.97;;;20.03;;
12625;SDS011;6378;42.684;23.372;2022-12-29T06:18:15;30.90;;;19.10;;
12625;SDS011;6378;42.684;23.372;2022-12-29T06:20:40;30.43;;;19.57;;
12625;SDS011;6378;42.684;23.372;2022-12-29T06:23:06;25.73;;;17.37;;
12625;SDS011;6378;42.684;23.372;2022-12-29T06:25:31;28.07;;;19.37;;
12625;SDS011;6378;42.684;23.372;2022-12-29T06:27:58;30.37;;;19.03;;
12625;SDS011;6378;42.684;23.372;2022-12-29T06:30:24;30.67;;;17.93;;
12625;SDS011;6378;42.684;23.372;2022-12-29T06:32:49;29.80;;;17.77;;
12625;SDS011;6378;42.684;23.372;2022-12-29T06:35:16;30.60;;;17.60;;
12625;SDS011;6378;42.684;23.372;2022-12-29T06:37:41;29.30;;;17.40;;
12625;SDS011;6378;42.684;23.372;2022-12-29T06:40:08;26.63;;;17.40;;
12625;SDS011;6378;42.684;23.372;2022-12-29T06:42:34;25.73;;;17.47;;
12625;SDS011;6378;42.684;23.372;2022-12-29T06:44:59;27.97;;;18.73;;
12625;SDS011;6378;42.684;23.372;2022-12-29T06:47:25;27.63;;;18.63;;
12625;SDS011;6378;42.684;23.372;2022-12-29T06:49:51;30.37;;;18.40;;
12625;SDS011;6378;42.684;23.372;2022-12-29T06:52:17;30.07;;;20.03;;
12625;SDS011;6378;42.684;23.372;2022-12-29T06:54:42;34.00;;;22.20;;
12625;SDS011;6378;42.684;23.372;2022-12-29T06:57:07;37.70;;;21.37;;
12625;SDS011;6378;42.684;23.372;2022-12-29T06:59:33;30.10;;;20.90;;
12625;SDS011;6378;42.684;23.372;2022-12-29T07:01:58;34.07;;;20.47;;
12625;SDS011;6378;42.684;23.372;2022-12-29T07:04:23;33.30;;;21.93;;
12625;SDS011;6378;42.684;23.372;2022-12-29T07:06:49;38.93;;;26.03;;
12625;SDS011;6378;42.684;23.372;2022-12-29T07:09:14;36.60;;;25.77;;
12625;SDS011;6378;42.684;23.372;2022-12-29T07:11:40;39.47;;;24.50;;
12625;SDS011;6378;42.684;23.372;2022-12-29T07:14:05;35.77;;;23.00;;
12625;SDS011;6378;42.684;23.372;2022-12-29T07:16:31;41.90;;;27.40;;
12625;SDS011;6378;42.684;23.372;2022-12-29T07:18:57;44.93;;;28.23;;
12625;SDS011;6378;42.684;23.372;2022-12-29T07:21:24;50.90;;;33.77;;
12625;SDS011;6378;42.684;23.372;2022-12-29T07:23:49;50.50;;;33.60;;
12625;SDS011;6378;42.684;23.372;2022-12-29T07:26:15;48.80;;;30.47;;
12625;SDS011;6378;42.684;23.372;2022-12-29T07:28:42;48.47;;;28.77;;
12625;SDS011;6378;42.684;23.372;2022-12-29T07:31:15;45.47;;;28.97;;
12625;SDS011;6378;42.684;23.372;2022-12-29T07:33:43;42.77;;;28.87;;
12625;SDS011;6378;42.684;23.372;2022-12-29T07:36:09;39.13;;;25.67;;
12625;SDS011;6378;42.684;23.372;2022-12-29T07:38:35;38.40;;;25.07;;
12625;SDS011;6378;42.684;23.372;2022-12-29T07:41:00;34.60;;;23.53;;
12625;SDS011;6378;42.684;23.372;2022-12-29T07:43:26;33.77;;;21.27;;
12625;SDS011;6378;42.684;23.372;2022-12-29T07:45:51;33.05;;;22.27;;
12625;SDS011;6378;42.684;23.372;2022-12-29T07:48:17;32.65;;;22.45;;
12625;SDS011;6378;42.684;23.372;2022-12-29T07:50:42;31.20;;;21.73;;
12625;SDS011;6378;42.684;23.372;2022-12-29T07:53:08;30.48;;;22.15;;
12625;SDS011;6378;42.684;23.372;2022-12-29T07:55:33;30.27;;;21.35;;
12625;SDS011;6378;42.684;23.372;2022-12-29T07:57:58;26.20;;;19.02;;
12625;SDS011;6378;42.684;23.372;2022-12-29T08:00:24;25.60;;;19.33;;
12625;SDS011;6378;42.684;23.372;2022-12-29T08:02:49;26.90;;;18.30;;
12625;SDS011;6378;42.684;23.372;2022-12-29T08:05:15;29.10;;;19.63;;
12625;SDS011;6378;42.684;23.372;2022-12-29T08:07:44;30.27;;;19.97;;
12625;SDS011;6378;42.684;23.372;2022-12-29T08:10:11;26.30;;;19.77;;
12625;SDS011;6378;42.684;23.372;2022-12-29T08:12:37;33.47;;;20.57;;
12625;SDS011;6378;42.684;23.372;2022-12-29T08:15:04;30.13;;;19.80;;
12625;SDS011;6378;42.684;23.372;2022-12-29T08:17:30;32.20;;;20.73;;
12625;SDS011;6378;42.684;23.372;2022-12-29T08:19:55;30.10;;;20.90;;
12625;SDS011;6378;42.684;23.372;2022-12-29T08:22:21;29.07;;;20.57;;
12625;SDS011;6378;42.684;23.372;2022-12-29T08:24:46;32.53;;;21.07;;
12625;SDS011;6378;42.684;23.372;2022-12-29T08:27:12;32.10;;;20.13;;
12625;SDS011;6378;42.684;23.372;2022-12-29T08:29:37;29.03;;;20.17;;
12625;SDS011;6378;42.684;23.372;2022-12-29T08:32:02;31.13;;;20.93;;
12625;SDS011;6378;42.684;23.372;2022-12-29T08:34:29;33.20;;;21.17;;
12625;SDS011;6378;42.684;23.372;2022-12-29T08:36:56;34.13;;;22.17;;
12625;SDS011;6378;42.684;23.372;2022-12-29T08:39:21;36.17;;;22.57;;
12625;SDS011;6378;42.684;23.372;2022-12-29T08:41:46;31.83;;;22.03;;
12625;SDS011;6378;42.684;23.372;2022-12-29T08:44:12;29.33;;;21.40;;
12625;SDS011;6378;42.684;23.372;2022-12-29T08:46:37;29.07;;;20.47;;
12625;SDS011;6378;42.684;23.372;2022-12-29T08:49:06;32.90;;;22.43;;
12625;SDS011;6378;42.684;23.372;2022-12-29T08:51:31;32.80;;;22.23;;
12625;SDS011;6378;42.684;23.372;2022-12-29T08:53:56;36.13;;;24.27;;
12625;SDS011;6378;42.684;23.372;2022-12-29T08:56:22;33.00;;;22.17;;
12625;SDS011;6378;42.684;23.372;2022-12-29T08:58:48;32.83;;;21.77;;
12625;SDS011;6378;42.684;23.372;2022-12-29T09:01:14;30.00;;;20.77;;
12625;SDS011;6378;42.684;23.372;2022-12-29T09:03:40;30.50;;;21.83;;
12625;SDS011;6378;42.684;23.372;2022-12-29T09:06:05;37.53;;;21.67;;
12625;SDS011;6378;42.684;23.372;2022-12-29T09:08:31;30.73;;;20.40;;
12625;SDS011;6378;42.684;23.372;2022-12-29T09:11:05;28.33;;;19.77;;
12625;SDS011;6378;42.684;23.372;2022-12-29T09:13:38;31.60;;;19.93;;
12625;SDS011;6378;42.684;23.372;2022-12-29T09:16:04;32.37;;;19.43;;
12625;SDS011;6378;42.684;23.372;2022-12-29T09:18:29;31.50;;;19.40;;
12625;SDS011;6378;42.684;23.372;2022-12-29T09:20:59;29.80;;;18.43;;
12625;SDS011;6378;42.684;23.372;2022-12-29T09:23:26;28.77;;;19.07;;
12625;SDS011;6378;42.684;23.372;2022-12-29T09:25:52;26.27;;;19.07;;
12625;SDS011;6378;42.684;23.372;2022-12-29T09:28:18;31.33;;;19.13;;
12625;SDS011;6378;42.684;23.372;2022-12-29T09:30:43;26.50;;;17.33;;
12625;SDS011;6378;42.684;23.372;2022-12-29T09:33:09;28.27;;;19.30;;
12625;SDS011;6378;42.684;23.372;2022-12-29T09:35:34;28.87;;;18.50;;
12625;SDS011;6378;42.684;23.372;2022-12-29T09:38:00;25.70;;;16.73;;
12625;SDS011;6378;42.684;23.372;2022-12-29T09:40:29;29.77;;;18.03;;
12625;SDS011;6378;42.684;23.372;2022-12-29T09:43:05;27.67;;;18.37;;
12625;SDS011;6378;42.684;23.372;2022-12-29T09:45:52;26.33;;;17.47;;
12625;SDS011;6378;42.684;23.372;2022-12-29T09:48:27;25.63;;;17.13;;
12625;SDS011;6378;42.684;23.372;2022-12-29T09:50:59;27.17;;;18.53;;
12625;SDS011;6378;42.684;23.372;2022-12-29T09:56:01;27.33;;;19.00;;
12625;SDS011;6378;42.684;23.372;2022-12-29T09:58:30;26.27;;;17.13;;
12625;SDS011;6378;42.684;23.372;2022-12-29T10:01:12;26.30;;;18.53;;
12625;SDS011;6378;42.684;23.372;2022-12-29T10:04:08;28.67;;;18.30;;
12625;SDS011;6378;42.684;23.372;2022-12-29T10:09:34;22.73;;;15.10;;
12625;SDS011;6378;42.684;23.372;2022-12-29T10:23:25;26.57;;;17.53;;
12625;SDS011;6378;42.684;23.372;2022-12-29T10:25:58;26.20;;;17.37;;
12625;SDS011;6378;42.684;23.372;2022-12-29T10:28:33;26.03;;;16.80;;
12625;SDS011;6378;42.684;23.372;2022-12-29T10:31:15;30.17;;;17.30;;
12625;SDS011;6378;42.684;23.372;2022-12-29T10:33:45;25.60;;;17.27;;
12625;SDS011;6378;42.684;23.372;2022-12-29T10:36:15;25.00;;;16.23;;
12625;SDS011;6378;42.684;23.372;2022-12-29T10:38:45;24.03;;;16.90;;
12625;SDS011;6378;42.684;23.372;2022-12-29T10:41:26;23.63;;;17.00;;
12625;SDS011;6378;42.684;23.372;2022-12-29T10:43:57;23.03;;;15.67;;
12625;SDS011;6378;42.684;23.372;2022-12-29T10:46:27;26.40;;;17.00;;
12625;SDS011;6378;42.684;23.372;2022-12-29T10:48:57;22.63;;;16.47;;
12625;SDS011;6378;42.684;23.372;2022-12-29T10:59:41;28.97;;;19.30;;
12625;SDS011;6378;42.684;23.372;2022-12-29T11:07:53;35.67;;;20.23;;
12625;SDS011;6378;42.684;23.372;2022-12-29T11:10:57;31.57;;;19.50;;
12625;SDS011;6378;42.684;23.372;2022-12-29T11:17:22;34.57;;;22.10;;
12625;SDS011;6378;42.684;23.372;2022-12-29T11:20:06;36.97;;;23.40;;
12625;SDS011;6378;42.684;23.372;2022-12-29T11:28:46;34.57;;;21.47;;
12625;SDS011;6378;42.684;23.372;2022-12-29T11:31:29;36.10;;;22.30;;
12625;SDS011;6378;42.684;23.372;2022-12-29T11:33:54;36.30;;;22.63;;
12625;SDS011;6378;42.684;23.372;2022-12-29T11:36:21;34.97;;;23.07;;
12625;SDS011;6378;42.684;23.372;2022-12-29T11:39:01;43.63;;;24.20;;
12625;SDS011;6378;42.684;23.372;2022-12-29T11:41:28;44.57;;;26.23;;
12625;SDS011;6378;42.684;23.372;2022-12-29T11:44:02;42.03;;;25.90;;
12625;SDS011;6378;42.684;23.372;2022-12-29T11:46:45;34.27;;;24.53;;
12625;SDS011;6378;42.684;23.372;2022-12-29T11:53:03;38.60;;;24.00;;
12625;SDS011;6378;42.684;23.372;2022-12-29T12:09:21;33.80;;;22.37;;
12625;SDS011;6378;42.684;23.372;2022-12-29T12:11:53;32.83;;;22.80;;
12625;SDS011;6378;42.684;23.372;2022-12-29T12:18:38;39.17;;;24.83;;
12625;SDS011;6378;42.684;23.372;2022-12-29T12:21:32;31.40;;;20.47;;
12625;SDS011;6378;42.684;23.372;2022-12-29T12:24:16;31.20;;;20.77;;
12625;SDS011;6378;42.684;23.372;2022-12-29T12:35:07;26.93;;;18.20;;
12625;SDS011;6378;42.684;23.372;2022-12-29T12:43:41;27.67;;;19.07;;
12625;SDS011;6378;42.684;23.372;2022-12-29T12:59:36;30.03;;;19.73;;
12625;SDS011;6378;42.684;23.372;2022-12-29T13:12:46;31.25;;;21.25;;
12625;SDS011;6378;42.684;23.372;2022-12-29T13:18:14;31.57;;;20.60;;
12625;SDS011;6378;42.684;23.372;2022-12-29T13:21:00;32.27;;;20.83;;
12625;SDS011;6378;42.684;23.372;2022-12-29T13:23:50;34.13;;;20.83;;
12625;SDS011;6378;42.684;23.372;2022-12-29T13:29:04;32.53;;;20.52;;
12625;SDS011;6378;42.684;23.372;2022-12-29T13:36:43;34.90;;;21.13;;
12625;SDS011;6378;42.684;23.372;2022-12-29T13:42:29;32.57;;;21.97;;
12625;SDS011;6378;42.684;23.372;2022-12-29T13:45:02;33.33;;;22.03;;
12625;SDS011;6378;42.684;23.372;2022-12-29T13:47:38;33.33;;;21.03;;
12625;SDS011;6378;42.684;23.372;2022-12-29T13:50:14;37.13;;;23.27;;
12625;SDS011;6378;42.684;23.372;2022-12-29T13:55:18;35.77;;;21.80;;
12625;SDS011;6378;42.684;23.372;2022-12-29T14:03:37;48.93;;;25.40;;
12625;SDS011;6378;42.684;23.372;2022-12-29T14:11:59;35.37;;;22.20;;
12625;SDS011;6378;42.684;23.372;2022-12-29T14:14:25;35.83;;;22.53;;
12625;SDS011;6378;42.684;23.372;2022-12-29T14:17:01;37.80;;;24.03;;
12625;SDS011;6378;42.684;23.372;2022-12-29T14:19:36;35.40;;;21.50;;
12625;SDS011;6378;42.684;23.372;2022-12-29T14:22:06;32.57;;;20.87;;
12625;SDS011;6378;42.684;23.372;2022-12-29T14:29:46;29.80;;;20.37;;
12625;SDS011;6378;42.684;23.372;2022-12-29T14:34:57;31.03;;;20.37;;
12625;SDS011;6378;42.684;23.372;2022-12-29T14:37:28;35.17;;;20.17;;
12625;SDS011;6378;42.684;23.372;2022-12-29T14:42:40;32.13;;;20.23;;
12625;SDS011;6378;42.684;23.372;2022-12-29T14:47:40;33.63;;;20.70;;
12625;SDS011;6378;42.684;23.372;2022-12-29T14:53:09;30.80;;;19.57;;
12625;SDS011;6378;42.684;23.372;2022-12-29T14:56:13;29.10;;;19.50;;
12625;SDS011;6378;42.684;23.372;2022-12-29T14:58:47;34.30;;;23.13;;
12625;SDS011;6378;42.684;23.372;2022-12-29T15:04:17;35.77;;;21.23;;
12625;SDS011;6378;42.684;23.372;2022-12-29T15:06:45;33.07;;;21.50;;
12625;SDS011;6378;42.684;23.372;2022-12-29T15:12:04;33.83;;;21.67;;
12625;SDS011;6378;42.684;23.372;2022-12-29T15:14:55;34.67;;;22.60;;
12625;SDS011;6378;42.684;23.372;2022-12-29T15:17:27;36.63;;;22.43;;
12625;SDS011;6378;42.684;23.372;2022-12-29T15:19:54;42.00;;;29.50;;
12625;SDS011;6378;42.684;23.372;2022-12-29T15:22:21;37.30;;;23.20;;
12625;SDS011;6378;42.684;23.372;2022-12-29T15:24:49;32.60;;;22.17;;
12625;SDS011;6378;42.684;23.372;2022-12-29T15:27:19;39.87;;;23.63;;
12625;SDS011;6378;42.684;23.372;2022-12-29T15:29:55;42.23;;;24.20;;
12625;SDS011;6378;42.684;23.372;2022-12-29T15:32:23;35.03;;;23.47;;
12625;SDS011;6378;42.684;23.372;2022-12-29T15:34:51;44.43;;;25.50;;
12625;SDS011;6378;42.684;23.372;2022-12-29T15:39:53;40.33;;;25.30;;
12625;SDS011;6378;42.684;23.372;2022-12-29T15:44:59;44.20;;;26.77;;
12625;SDS011;6378;42.684;23.372;2022-12-29T15:47:29;50.60;;;30.03;;
12625;SDS011;6378;42.684;23.372;2022-12-29T15:49:59;47.57;;;29.67;;
12625;SDS011;6378;42.684;23.372;2022-12-29T15:52:29;43.37;;;28.40;;
12625;SDS011;6378;42.684;23.372;2022-12-29T15:54:57;43.43;;;28.47;;
12625;SDS011;6378;42.684;23.372;2022-12-29T15:57:25;50.70;;;31.67;;
12625;SDS011;6378;42.684;23.372;2022-12-29T15:59:53;51.70;;;32.47;;
12625;SDS011;6378;42.684;23.372;2022-12-29T16:02:19;50.13;;;30.50;;
12625;SDS011;6378;42.684;23.372;2022-12-29T16:04:46;48.77;;;32.33;;
12625;SDS011;6378;42.684;23.372;2022-12-29T16:07:24;56.37;;;35.67;;
12625;SDS011;6378;42.684;23.372;2022-12-29T16:09:55;66.40;;;39.80;;
12625;SDS011;6378;42.684;23.372;2022-12-29T16:12:43;50.03;;;31.33;;
12625;SDS011;6378;42.684;23.372;2022-12-29T16:15:10;53.92;;;36.30;;
12625;SDS011;6378;42.684;23.372;2022-12-29T16:17:57;51.00;;;31.30;;
12625;SDS011;6378;42.684;23.372;2022-12-29T16:20:24;52.33;;;30.70;;
12625;SDS011;6378;42.684;23.372;2022-12-29T16:23:04;95.77;;;55.37;;
12625;SDS011;6378;42.684;23.372;2022-12-29T16:25:31;270.33;;;180.37;;
12625;SDS011;6378;42.684;23.372;2022-12-29T16:28:00;184.27;;;121.43;;
12625;SDS011;6378;42.684;23.372;2022-12-29T16:30:29;206.47;;;129.33;;
12625;SDS011;6378;42.684;23.372;2022-12-29T16:32:57;243.23;;;161.20;;
12625;SDS011;6378;42.684;23.372;2022-12-29T16:35:26;199.33;;;124.60;;
12625;SDS011;6378;42.684;23.372;2022-12-29T16:43:26;155.30;;;88.67;;
12625;SDS011;6378;42.684;23.372;2022-12-29T16:48:36;190.03;;;115.73;;
12625;SDS011;6378;42.684;23.372;2022-12-29T16:53:47;169.60;;;103.87;;
12625;SDS011;6378;42.684;23.372;2022-12-29T16:56:17;184.73;;;108.33;;
12625;SDS011;6378;42.684;23.372;2022-12-29T16:58:48;196.93;;;116.93;;
12625;SDS011;6378;42.684;23.372;2022-12-29T17:01:18;196.33;;;113.60;;
12625;SDS011;6378;42.684;23.372;2022-12-29T17:03:48;212.53;;;125.43;;
12625;SDS011;6378;42.684;23.372;2022-12-29T17:06:20;181.23;;;107.07;;
12625;SDS011;6378;42.684;23.372;2022-12-29T17:08:47;177.03;;;99.10;;
12625;SDS011;6378;42.684;23.372;2022-12-29T17:16:56;198.80;;;115.60;;
12625;SDS011;6378;42.684;23.372;2022-12-29T17:19:35;137.90;;;81.63;;
12625;SDS011;6378;42.684;23.372;2022-12-29T17:22:02;181.73;;;108.17;;
12625;SDS011;6378;42.684;23.372;2022-12-29T17:24:33;224.47;;;132.47;;
12625;SDS011;6378;42.684;23.372;2022-12-29T17:27:00;184.20;;;104.47;;
12625;SDS011;6378;42.684;23.372;2022-12-29T17:29:31;156.30;;;85.83;;
12625;SDS011;6378;42.684;23.372;2022-12-29T17:32:01;212.73;;;117.13;;
12625;SDS011;6378;42.684;23.372;2022-12-29T17:34:28;156.77;;;89.97;;
12625;SDS011;6378;42.684;23.372;2022-12-29T17:36:54;133.00;;;79.43;;
12625;SDS011;6378;42.684;23.372;2022-12-29T17:39:19;128.53;;;69.50;;
12625;SDS011;6378;42.684;23.372;2022-12-29T17:41:45;104.77;;;59.77;;
12625;SDS011;6378;42.684;23.372;2022-12-29T17:44:17;89.27;;;52.97;;
12625;SDS011;6378;42.684;23.372;2022-12-29T17:46:44;83.17;;;48.47;;
12625;SDS011;6378;42.684;23.372;2022-12-29T17:49:13;73.63;;;42.53;;
12625;SDS011;6378;42.684;23.372;2022-12-29T17:51:41;70.77;;;40.73;;
12625;SDS011;6378;42.684;23.372;2022-12-29T17:54:14;74.33;;;41.17;;
12625;SDS011;6378;42.684;23.372;2022-12-29T17:56:43;71.70;;;38.23;;
12625;SDS011;6378;42.684;23.372;2022-12-29T17:59:12;58.93;;;38.37;;
12625;SDS011;6378;42.684;23.372;2022-12-29T18:01:43;67.97;;;40.63;;
12625;SDS011;6378;42.684;23.372;2022-12-29T18:04:21;74.30;;;41.47;;